Terminal Aerodrome Forecast
Issued by NWS

Home | Current Version | Previous Version | Text Only | Print | Product List | Glossary On
Versions: 1 2 3 4 5 6 7 8 9 10 11 12 13
000
FTUS42 KTAE 011100
TAFVLD
TAF
KVLD 011133Z 0112/0212 13004KT P6SM SCT250
     FM011600 16012KT P6SM SCT050 BKN250
     FM020200 17009KT P6SM -RA OVC050
     FM020600 17011KT 4SM BR OVC025=

USA.gov is the U.S. government's official web portal to all federal, state and local government web resources and services.